Time,TemperatureF,DewpointF,PressureIn,WindDirection,WindDirectionDegrees,WindSpeedMPH,WindSpeedGustMPH,Humidity,HourlyPrecipIn,Conditions,Clouds,dailyrainin,SoftwareType,DateUTC
2013-03-28 00:02:00,43.0,34.0,30.17,East,100,10.0,-999.0,70,-99.99,,,-99.99,,2013-03-28 05:02:00,
2013-03-28 00:22:00,37.0,32.0,30.18,North,0,0.0,-999.0,80,-99.99,,,-99.99,,2013-03-28 05:22:00,
2013-03-28 00:32:00,37.0,32.0,30.18,North,0,0.0,-999.0,80,-99.99,,,-99.99,,2013-03-28 05:32:00,
2013-03-28 00:43:00,37.0,32.0,30.18,North,0,0.0,-999.0,80,-99.99,,,-99.99,,2013-03-28 05:43:00,
2013-03-28 00:52:00,37.0,32.0,30.18,North,0,0.0,-999.0,80,-99.99,,,-99.99,,2013-03-28 05:52:00,
2013-03-28 01:02:00,37.0,32.0,30.18,North,0,0.0,-999.0,80,-99.99,,,-99.99,,2013-03-28 06:02:00,
2013-03-28 01:22:00,30.0,28.0,30.18,North,10,3.0,-999.0,92,-99.99,,,-99.99,,2013-03-28 06:22:00,
2013-03-28 01:33:00,30.0,28.0,30.18,North,10,3.0,-999.0,92,-99.99,,,-99.99,,2013-03-28 06:33:00,
2013-03-28 01:42:00,30.0,28.0,30.18,North,10,3.0,-999.0,92,-99.99,,,-99.99,,2013-03-28 06:42:00,
2013-03-28 01:52:00,30.0,28.0,30.18,North,10,3.0,-999.0,92,-99.99,,,-99.99,,2013-03-28 06:52:00,
2013-03-28 02:02:00,30.0,28.0,30.18,North,10,3.0,-999.0,92,-99.99,,,-99.99,,2013-03-28 07:02:00,
2013-03-28 02:22:00,28.0,27.0,30.19,North,10,3.0,-999.0,92,-99.99,,,-99.99,,2013-03-28 07:22:00,
2013-03-28 02:32:00,28.0,27.0,30.19,North,10,3.0,-999.0,92,-99.99,,,-99.99,,2013-03-28 07:32:00,
2013-03-28 02:42:00,28.0,27.0,30.19,North,10,3.0,-999.0,92,-99.99,,,-99.99,,2013-03-28 07:42:00,
2013-03-28 02:52:00,28.0,27.0,30.19,North,10,3.0,-999.0,92,-99.99,,,-99.99,,2013-03-28 07:52:00,
2013-03-28 03:02:00,28.0,27.0,30.19,North,10,3.0,-999.0,92,-99.99,,,-99.99,,2013-03-28 08:02:00,
2013-03-28 03:22:00,28.0,27.0,30.19,North,10,3.0,-999.0,92,-99.99,,,-99.99,,2013-03-28 08:22:00,
2013-03-28 03:33:00,27.0,25.0,30.18,NNE,20,6.0,-999.0,92,-99.99,,,-99.99,,2013-03-28 08:33:00,
2013-03-28 03:42:00,27.0,25.0,30.18,NNE,20,6.0,-999.0,92,-99.99,,,-99.99,,2013-03-28 08:42:00,
2013-03-28 03:52:00,27.0,25.0,30.18,NNE,20,6.0,-999.0,92,-99.99,,,-99.99,,2013-03-28 08:52:00,
2013-03-28 04:02:00,27.0,25.0,30.18,NNE,20,6.0,-999.0,92,-99.99,,,-99.99,,2013-03-28 09:02:00,
2013-03-28 04:12:00,27.0,25.0,30.18,NNE,20,6.0,-999.0,92,-99.99,,,-99.99,,2013-03-28 09:12:00,
2013-03-28 04:22:00,27.0,25.0,30.18,NNE,20,3.0,-999.0,92,-99.99,,,-99.99,,2013-03-28 09:22:00,
2013-03-28 04:33:00,27.0,25.0,30.18,NNE,20,3.0,-999.0,92,-99.99,,,-99.99,,2013-03-28 09:33:00,
2013-03-28 04:42:00,27.0,25.0,30.18,NNE,20,3.0,-999.0,92,-99.99,,,-99.99,,2013-03-28 09:42:00,
2013-03-28 04:52:00,27.0,25.0,30.18,NNE,20,3.0,-999.0,92,-99.99,,,-99.99,,2013-03-28 09:52:00,
2013-03-28 05:03:00,27.0,25.0,30.18,NNE,20,3.0,-999.0,92,-99.99,,,-99.99,,2013-03-28 10:03:00,
2013-03-28 05:12:00,27.0,25.0,30.18,NNE,20,3.0,-999.0,92,-99.99,,,-99.99,,2013-03-28 10:12:00,
2013-03-28 05:33:00,27.0,27.0,30.18,NNE,20,3.0,-999.0,100,-99.99,,,-99.99,,2013-03-28 10:33:00,
2013-03-28 05:43:00,27.0,27.0,30.18,NNE,20,3.0,-999.0,100,-99.99,,,-99.99,,2013-03-28 10:43:00,
2013-03-28 05:53:00,27.0,27.0,30.17,NE,50,3.0,-999.0,100,-99.99,,,-99.99,,2013-03-28 10:53:00,
2013-03-28 06:02:00,27.0,27.0,30.17,NE,50,3.0,-999.0,100,-99.99,,,-99.99,,2013-03-28 11:02:00,
2013-03-28 06:12:00,27.0,27.0,30.17,NE,50,3.0,-999.0,100,-99.99,,,-99.99,,2013-03-28 11:12:00,
2013-03-28 06:22:00,28.0,27.0,30.16,NE,40,5.0,-999.0,92,-99.99,,,-99.99,,2013-03-28 11:22:00,
2013-03-28 06:32:00,28.0,27.0,30.16,NE,40,5.0,-999.0,92,-99.99,,,-99.99,,2013-03-28 11:32:00,
2013-03-28 06:43:00,28.0,27.0,30.16,NE,40,5.0,-999.0,92,-99.99,,,-99.99,,2013-03-28 11:43:00,
2013-03-28 06:52:00,28.0,27.0,30.16,NE,40,5.0,-999.0,92,-99.99,,,-99.99,,2013-03-28 11:52:00,
2013-03-28 07:02:00,28.0,27.0,30.16,NE,40,5.0,-999.0,92,-99.99,,,-99.99,,2013-03-28 12:02:00,
2013-03-28 07:22:00,27.0,25.0,30.16,North,0,0.0,-999.0,92,-99.99,,,-99.99,,2013-03-28 12:22:00,
2013-03-28 07:33:00,27.0,27.0,30.17,North,0,0.0,-999.0,100,-99.99,,,-99.99,,2013-03-28 12:33:00,
2013-03-28 07:42:00,27.0,27.0,30.17,North,0,0.0,-999.0,100,-99.99,,,-99.99,,2013-03-28 12:42:00,
2013-03-28 07:52:00,27.0,27.0,30.17,North,0,0.0,-999.0,100,-99.99,,,-99.99,,2013-03-28 12:52:00,
2013-03-28 08:02:00,27.0,27.0,30.17,North,0,0.0,-999.0,100,-99.99,,,-99.99,,2013-03-28 13:02:00,
2013-03-28 08:12:00,27.0,27.0,30.17,North,0,0.0,-999.0,100,-99.99,,,-99.99,,2013-03-28 13:12:00,
2013-03-28 08:22:00,27.0,25.0,30.18,North,0,0.0,-999.0,92,-99.99,,,-99.99,,2013-03-28 13:22:00,
2013-03-28 08:32:00,28.0,28.0,30.18,North,0,0.0,-999.0,100,-99.99,,,-99.99,,2013-03-28 13:32:00,
2013-03-28 08:42:00,28.0,28.0,30.18,North,0,0.0,-999.0,100,-99.99,,,-99.99,,2013-03-28 13:42:00,
2013-03-28 08:52:00,28.0,28.0,30.18,North,0,0.0,-999.0,100,-99.99,,,-99.99,,2013-03-28 13:52:00,
2013-03-28 09:02:00,28.0,28.0,30.18,North,0,0.0,-999.0,100,-99.99,,,-99.99,,2013-03-28 14:02:00,
2013-03-28 09:12:00,28.0,28.0,30.18,North,0,0.0,-999.0,100,-99.99,,,-99.99,,2013-03-28 14:12:00,
2013-03-28 09:22:00,34.0,30.0,30.18,NE,40,3.0,-999.0,86,-99.99,,,-99.99,,2013-03-28 14:22:00,
2013-03-28 09:33:00,34.0,30.0,30.18,NE,40,3.0,-999.0,86,-99.99,,,-99.99,,2013-03-28 14:33:00,
2013-03-28 09:42:00,34.0,30.0,30.18,NE,40,3.0,-999.0,86,-99.99,,,-99.99,,2013-03-28 14:42:00,
2013-03-28 09:52:00,34.0,30.0,30.18,NE,40,3.0,-999.0,86,-99.99,,,-99.99,,2013-03-28 14:52:00,
2013-03-28 10:02:00,34.0,30.0,30.18,NE,40,3.0,-999.0,86,-99.99,,,-99.99,,2013-03-28 15:02:00,
2013-03-28 10:22:00,43.0,32.0,30.19,ESE,120,5.0,-999.0,65,-99.99,,,-99.99,,2013-03-28 15:22:00,
2013-03-28 10:33:00,43.0,32.0,30.19,ESE,120,5.0,-999.0,65,-99.99,,,-99.99,,2013-03-28 15:33:00,
2013-03-28 10:43:00,43.0,32.0,30.19,ESE,120,5.0,-999.0,65,-99.99,,,-99.99,,2013-03-28 15:43:00,
2013-03-28 10:53:00,43.0,32.0,30.19,ESE,120,5.0,-999.0,65,-99.99,,,-99.99,,2013-03-28 15:53:00,
2013-03-28 11:02:00,43.0,32.0,30.19,ESE,120,5.0,-999.0,65,-99.99,,,-99.99,,2013-03-28 16:02:00,
2013-03-28 11:23:00,48.0,34.0,30.19,North,0,0.0,-999.0,57,-99.99,,,-99.99,,2013-03-28 16:23:00,
2013-03-28 11:32:00,52.0,34.0,30.19,ENE,60,3.0,-999.0,50,-99.99,,,-99.99,,2013-03-28 16:32:00,
2013-03-28 11:42:00,52.0,34.0,30.19,ENE,60,3.0,-999.0,50,-99.99,,,-99.99,,2013-03-28 16:42:00,
2013-03-28 11:52:00,52.0,34.0,30.19,North,0,0.0,-999.0,50,-99.99,,,-99.99,,2013-03-28 16:52:00,
2013-03-28 12:02:00,52.0,34.0,30.19,North,0,0.0,-999.0,50,-99.99,,,-99.99,,2013-03-28 17:02:00,
2013-03-28 12:12:00,52.0,34.0,30.19,North,0,0.0,-999.0,50,-99.99,,,-99.99,,2013-03-28 17:12:00,
2013-03-28 12:22:00,54.0,34.0,30.18,ENE,60,7.0,-999.0,46,-99.99,,,-99.99,,2013-03-28 17:22:00,
2013-03-28 12:32:00,54.0,34.0,30.18,ENE,60,7.0,-999.0,46,-99.99,,,-99.99,,2013-03-28 17:32:00,
2013-03-28 12:42:00,54.0,34.0,30.18,ENE,60,7.0,-999.0,46,-99.99,,,-99.99,,2013-03-28 17:42:00,
2013-03-28 12:52:00,55.0,34.0,30.18,ENE,60,6.0,-999.0,43,-99.99,,,-99.99,,2013-03-28 17:52:00,
2013-03-28 13:02:00,55.0,34.0,30.18,ENE,60,6.0,-999.0,43,-99.99,,,-99.99,,2013-03-28 18:02:00,
2013-03-28 13:12:00,55.0,34.0,30.18,ENE,60,6.0,-999.0,43,-99.99,,,-99.99,,2013-03-28 18:12:00,
2013-03-28 13:22:00,59.0,34.0,30.17,ENE,60,7.0,-999.0,38,-99.99,,,-99.99,,2013-03-28 18:22:00,
2013-03-28 13:32:00,59.0,34.0,30.16,SE,130,9.0,-999.0,38,-99.99,,,-99.99,,2013-03-28 18:32:00,
2013-03-28 13:42:00,59.0,34.0,30.16,SE,130,9.0,-999.0,38,-99.99,,,-99.99,,2013-03-28 18:42:00,
2013-03-28 13:52:00,59.0,34.0,30.16,SE,130,9.0,-999.0,38,-99.99,,,-99.99,,2013-03-28 18:52:00,
2013-03-28 14:02:00,59.0,34.0,30.16,SE,130,9.0,-999.0,38,-99.99,,,-99.99,,2013-03-28 19:02:00,
2013-03-28 14:12:00,59.0,34.0,30.16,SE,130,9.0,-999.0,38,-99.99,,,-99.99,,2013-03-28 19:12:00,
2013-03-28 14:52:00,63.0,30.0,30.14,East,90,8.0,-999.0,29,-99.99,,,-99.99,,2013-03-28 19:52:00,
2013-03-28 15:03:00,63.0,30.0,30.14,East,90,8.0,-999.0,29,-99.99,,,-99.99,,2013-03-28 20:03:00,
2013-03-28 15:12:00,63.0,30.0,30.14,East,90,8.0,-999.0,29,-99.99,,,-99.99,,2013-03-28 20:12:00,
2013-03-28 15:22:00,63.0,30.0,30.14,East,90,8.0,-999.0,29,-99.99,,,-99.99,,2013-03-28 20:22:00,
2013-03-28 15:32:00,63.0,30.0,30.14,East,90,8.0,-999.0,29,-99.99,,,-99.99,,2013-03-28 20:32:00,
2013-03-28 16:22:00,64.0,28.0,30.10,East,100,12.0,-999.0,25,-99.99,,,-99.99,,2013-03-28 21:22:00,
2013-03-28 16:33:00,64.0,28.0,30.10,East,100,12.0,-999.0,25,-99.99,,,-99.99,,2013-03-28 21:33:00,
2013-03-28 16:43:00,64.0,28.0,30.10,East,100,12.0,-999.0,25,-99.99,,,-99.99,,2013-03-28 21:43:00,
2013-03-28 16:53:00,64.0,28.0,30.09,ESE,110,9.0,-999.0,25,-99.99,,,-99.99,,2013-03-28 21:53:00,
2013-03-28 17:02:00,64.0,28.0,30.09,ESE,110,9.0,-999.0,25,-99.99,,,-99.99,,2013-03-28 22:02:00,
2013-03-28 17:12:00,64.0,28.0,30.09,ESE,110,9.0,-999.0,25,-99.99,,,-99.99,,2013-03-28 22:12:00,
2013-03-28 17:22:00,66.0,28.0,30.07,ESE,120,6.0,-999.0,24,-99.99,,,-99.99,,2013-03-28 22:22:00,
2013-03-28 17:32:00,66.0,28.0,30.07,ESE,120,6.0,-999.0,24,-99.99,,,-99.99,,2013-03-28 22:32:00,
2013-03-28 17:42:00,66.0,28.0,30.07,ESE,120,6.0,-999.0,24,-99.99,,,-99.99,,2013-03-28 22:42:00,
2013-03-28 17:52:00,66.0,28.0,30.07,ESE,120,6.0,-999.0,24,-99.99,,,-99.99,,2013-03-28 22:52:00,
2013-03-28 18:02:00,66.0,28.0,30.07,ESE,120,6.0,-999.0,24,-99.99,,,-99.99,,2013-03-28 23:02:00,
2013-03-28 18:22:00,64.0,28.0,30.07,ENE,60,7.0,-999.0,25,-99.99,,,-99.99,,2013-03-28 23:22:00,
2013-03-28 18:32:00,64.0,28.0,30.07,ENE,60,7.0,-999.0,25,-99.99,,,-99.99,,2013-03-28 23:32:00,
2013-03-28 18:42:00,64.0,28.0,30.07,ENE,60,7.0,-999.0,25,-99.99,,,-99.99,,2013-03-28 23:42:00,
2013-03-28 18:53:00,64.0,28.0,30.07,ENE,60,7.0,-999.0,25,-99.99,,,-99.99,,2013-03-28 23:53:00,
2013-03-28 19:02:00,64.0,28.0,30.07,ENE,60,7.0,-999.0,25,-99.99,,,-99.99,,2013-03-29 00:02:00,
2013-03-28 19:22:00,64.0,27.0,30.09,East,80,7.0,-999.0,23,-99.99,,,-99.99,,2013-03-29 00:22:00,
2013-03-28 19:33:00,64.0,27.0,30.09,East,80,7.0,-999.0,23,-99.99,,,-99.99,,2013-03-29 00:33:00,
2013-03-28 19:42:00,64.0,27.0,30.09,East,80,7.0,-999.0,23,-99.99,,,-99.99,,2013-03-29 00:42:00,
2013-03-28 19:52:00,64.0,27.0,30.09,East,80,7.0,-999.0,23,-99.99,,,-99.99,,2013-03-29 00:52:00,
2013-03-28 20:02:00,64.0,27.0,30.09,East,80,7.0,-999.0,23,-99.99,,,-99.99,,2013-03-29 01:02:00,
2013-03-28 20:22:00,54.0,34.0,30.10,ENE,60,7.0,-999.0,46,-99.99,,,-99.99,,2013-03-29 01:22:00,
2013-03-28 20:33:00,54.0,34.0,30.10,ENE,60,7.0,-999.0,46,-99.99,,,-99.99,,2013-03-29 01:33:00,
2013-03-28 20:42:00,54.0,34.0,30.10,ENE,60,7.0,-999.0,46,-99.99,,,-99.99,,2013-03-29 01:42:00,
2013-03-28 20:52:00,52.0,34.0,30.11,ENE,60,7.0,-999.0,50,-99.99,,,-99.99,,2013-03-29 01:52:00,
2013-03-28 21:02:00,52.0,34.0,30.11,ENE,60,7.0,-999.0,50,-99.99,,,-99.99,,2013-03-29 02:02:00,
2013-03-28 21:12:00,52.0,34.0,30.11,ENE,60,7.0,-999.0,50,-99.99,,,-99.99,,2013-03-29 02:12:00,
2013-03-28 21:22:00,50.0,34.0,30.12,ENE,70,7.0,-999.0,53,-99.99,,,-99.99,,2013-03-29 02:22:00,
2013-03-28 21:32:00,50.0,34.0,30.12,ENE,70,7.0,-999.0,53,-99.99,,,-99.99,,2013-03-29 02:32:00,
2013-03-28 21:42:00,50.0,34.0,30.12,ENE,70,7.0,-999.0,53,-99.99,,,-99.99,,2013-03-29 02:42:00,
2013-03-28 21:53:00,50.0,34.0,30.12,ENE,70,7.0,-999.0,53,-99.99,,,-99.99,,2013-03-29 02:53:00,
2013-03-28 22:02:00,50.0,34.0,30.12,ENE,70,7.0,-999.0,53,-99.99,,,-99.99,,2013-03-29 03:02:00,
2013-03-28 22:22:00,46.0,34.0,30.14,NE,50,8.0,-999.0,61,-99.99,,,-99.99,,2013-03-29 03:22:00,
2013-03-28 22:32:00,46.0,34.0,30.14,NE,50,8.0,-999.0,61,-99.99,,,-99.99,,2013-03-29 03:32:00,
2013-03-28 22:43:00,46.0,34.0,30.14,NE,50,8.0,-999.0,61,-99.99,,,-99.99,,2013-03-29 03:43:00,
2013-03-28 22:53:00,48.0,34.0,30.15,NE,50,9.0,-999.0,57,-99.99,,,-99.99,,2013-03-29 03:53:00,
2013-03-28 23:03:00,48.0,34.0,30.15,NE,50,9.0,-999.0,57,-99.99,,,-99.99,,2013-03-29 04:03:00,
2013-03-28 23:13:00,48.0,34.0,30.15,NE,50,9.0,-999.0,57,-99.99,,,-99.99,,2013-03-29 04:13:00,
2013-03-28 23:22:00,48.0,34.0,30.15,NE,50,9.0,-999.0,57,-99.99,,,-99.99,,2013-03-29 04:22:00,
2013-03-28 23:33:00,48.0,34.0,30.15,NE,50,9.0,-999.0,57,-99.99,,,-99.99,,2013-03-29 04:33:00,